Nearby METAR Reports

 

KLMT - Klamath Falls, Oregon, USA
Distance from station: WNW 15mi, 25km
Updated: Fri, 10-Jul-2020 3:53pm PDT
Clear
Clear
 Wind from varies
Wind: varies 3 mph , 6 km/h
Temperature: 84°F , 29°C
Dew Point: 39°F , 4°C
Humidity: 20%
Barometer: 30.15 inHg , 1021 hPa
Clouds: Clear
Visibility: 10 miles , 16 km
2020/07/10 22:53 KLMT 102253Z VRB03KT 10SM CLR 29/04 A3015 RMK AO2 SLP172 T02890044
KLKV - Lakeview, Oregon, USA
Distance from station: E 53mi, 85km
Updated: Fri, 10-Jul-2020 3:53pm PDT
Clear
Clear
 Wind from SE
Wind: SE 9 mph , 15 km/h
Temperature: 84°F , 29°C
Dew Point: 39°F , 4°C
Humidity: 20%
Barometer: 30.18 inHg , 1022 hPa
Clouds: Clear
Visibility: 10 miles , 16 km
2020/07/10 22:53 KLKV 102253Z AUTO 14008KT 10SM CLR 29/04 A3018 RMK AO2 SLP183 T02940039
 
KSIY - Montague/Siskiyo, California, USA
Distance from station: WSW 58mi, 93km
Updated: Fri, 10-Jul-2020 3:53pm PDT
Clear
Clear
 Wind from SE
Wind: SE 9 mph , 15 km/h
Temperature: 91°F , 33°C
Dew Point: 39°F , 4°C
Humidity: 16%
Barometer: 30.07 inHg , 1018.3 hPa
Clouds: Clear
Visibility: 10 miles , 16 km
2020/07/10 22:53 KSIY 102253Z AUTO 13008KT 10SM CLR 33/04 A3007 RMK AO2 SLP165 T03330039
KAAT - Alturas, California, USA
Distance from station: SE 61mi, 98km
Updated: Fri, 10-Jul-2020 3:55pm PDT
Clear
Clear
 Wind from WSW
Wind: WSW 21 mph , 33 km/h, Gust: 24 mph , 39 km/h
Temperature: 91°F , 33°C
Dew Point: 30°F , -1°C
Humidity: 11%
Barometer: 30.14 inHg , 1020.7 hPa
Clouds: Clear
Visibility: 10 miles , 16 km
2020/07/10 22:55 KAAT 102255Z AUTO 25018G21KT 10SM CLR 33/M01 A3014 RMK AO2 SLP163 T03281011
 
KMHS - Mount Shasta, California, USA
Distance from station: SW 70mi, 113km
Updated: Fri, 10-Jul-2020 3:56pm PDT
Clear
Clear
 Wind from varies
Wind: varies 5 mph , 7 km/h
Temperature: 90°F , 32°C
Dew Point: 41°F , 5°C
Humidity: 18%
Barometer: 30.12 inHg , 1020 hPa
Clouds: Clear
Visibility: 10 miles , 16 km
2020/07/10 22:56 KMHS 102256Z AUTO VRB04KT 10SM CLR 32/05 A3012 RMK AO2 SLP181 T03170050 $
KMFR - Medford, Oregon, USA
Distance from station: WNW 76mi, 123km
Updated: Fri, 10-Jul-2020 3:53pm PDT
Clear
Clear
 Wind from NNW
Wind: NNW 9 mph , 15 km/h
Temperature: 90°F , 32°C
Dew Point: 46°F , 8°C
Humidity: 22%
Barometer: 30.03 inHg , 1016.9 hPa
Clouds: Clear
Visibility: 10 miles , 16 km
2020/07/10 22:53 KMFR 102253Z 33008KT 10SM CLR 32/08 A3003 RMK AO2 SLP159 T03220083